Cortina D'Ampezzo Airport LIDI

Flugplatz Daten

Name: Cortina D'Ampezzo Airport

Ident: LIDI

Lat: 46,57300186

Long: 12,11800003

Platzhöhe: 4213 ft

IataCode:

City: Cortina D'Ampezzo

Metar

2021/10/29 05:30
YBRM 290530Z 28012KT 9999 SCT018 30/23 Q1010 LINE OF BULIDING CU INLAND

Taf

Gewünschte Webcam nicht vorhanden? Dann fügen Sie eine hinzu. Sie wird dann so schnell wie möglich freigeschaltet
Url: Title: